sensor_id;sensor_type;location;lat;lon;timestamp;temperature;humidity
24162;DHT22;12318;51.262;7.066;2022-12-18T00:02:15;-2.00;99.90
24162;DHT22;12318;51.262;7.066;2022-12-18T00:04:41;-2.00;99.90
24162;DHT22;12318;51.262;7.066;2022-12-18T00:07:07;-2.00;99.90
24162;DHT22;12318;51.262;7.066;2022-12-18T00:09:33;-2.00;99.90
24162;DHT22;12318;51.262;7.066;2022-12-18T00:11:59;-2.00;99.90
24162;DHT22;12318;51.262;7.066;2022-12-18T00:14:25;-2.00;99.90
24162;DHT22;12318;51.262;7.066;2022-12-18T00:16:54;-2.10;99.90
24162;DHT22;12318;51.262;7.066;2022-12-18T00:19:22;-2.00;99.90
24162;DHT22;12318;51.262;7.066;2022-12-18T00:21:48;-2.10;99.90
24162;DHT22;12318;51.262;7.066;2022-12-18T00:24:14;-2.10;99.90
24162;DHT22;12318;51.262;7.066;2022-12-18T00:26:40;-2.10;99.90
24162;DHT22;12318;51.262;7.066;2022-12-18T00:29:12;-2.10;99.90
24162;DHT22;12318;51.262;7.066;2022-12-18T00:31:40;-2.10;99.90
24162;DHT22;12318;51.262;7.066;2022-12-18T00:34:06;-2.00;99.90
24162;DHT22;12318;51.262;7.066;2022-12-18T00:36:33;-2.00;99.90
24162;DHT22;12318;51.262;7.066;2022-12-18T00:39:01;-2.00;99.90
24162;DHT22;12318;51.262;7.066;2022-12-18T00:41:28;-2.00;99.90
24162;DHT22;12318;51.262;7.066;2022-12-18T00:44:14;-2.00;99.90
24162;DHT22;12318;51.262;7.066;2022-12-18T00:46:42;-2.00;99.90
24162;DHT22;12318;51.262;7.066;2022-12-18T00:49:09;-2.10;99.90
24162;DHT22;12318;51.262;7.066;2022-12-18T00:51:35;-2.00;99.90
24162;DHT22;12318;51.262;7.066;2022-12-18T00:54:00;-1.90;99.90
24162;DHT22;12318;51.262;7.066;2022-12-18T00:56:50;-1.90;99.90
24162;DHT22;12318;51.262;7.066;2022-12-18T00:59:18;-1.90;99.90
24162;DHT22;12318;51.262;7.066;2022-12-18T01:01:44;-2.00;99.90
24162;DHT22;12318;51.262;7.066;2022-12-18T01:04:10;-1.90;99.90
24162;DHT22;12318;51.262;7.066;2022-12-18T01:06:40;-1.90;99.90
24162;DHT22;12318;51.262;7.066;2022-12-18T01:09:06;-1.90;99.90
24162;DHT22;12318;51.262;7.066;2022-12-18T01:11:32;-1.80;99.90
24162;DHT22;12318;51.262;7.066;2022-12-18T01:13:57;-1.90;99.90
24162;DHT22;12318;51.262;7.066;2022-12-18T01:16:27;-1.90;99.90
24162;DHT22;12318;51.262;7.066;2022-12-18T01:18:54;-1.90;99.90
24162;DHT22;12318;51.262;7.066;2022-12-18T01:21:21;-1.90;99.90
24162;DHT22;12318;51.262;7.066;2022-12-18T01:23:51;-1.90;99.90
24162;DHT22;12318;51.262;7.066;2022-12-18T01:26:18;-1.80;99.90
24162;DHT22;12318;51.262;7.066;2022-12-18T01:28:43;-1.70;99.90
24162;DHT22;12318;51.262;7.066;2022-12-18T01:31:24;-1.80;99.90
24162;DHT22;12318;51.262;7.066;2022-12-18T01:33:51;-1.90;99.90
24162;DHT22;12318;51.262;7.066;2022-12-18T01:36:26;-1.90;99.90
24162;DHT22;12318;51.262;7.066;2022-12-18T01:38:53;-1.90;99.90
24162;DHT22;12318;51.262;7.066;2022-12-18T01:41:25;-1.90;99.90
24162;DHT22;12318;51.262;7.066;2022-12-18T01:43:56;-2.00;99.90
24162;DHT22;12318;51.262;7.066;2022-12-18T01:46:27;-2.00;99.90
24162;DHT22;12318;51.262;7.066;2022-12-18T01:49:00;-1.90;99.90
24162;DHT22;12318;51.262;7.066;2022-12-18T01:51:27;-1.90;99.90
24162;DHT22;12318;51.262;7.066;2022-12-18T01:53:55;-1.90;99.90
24162;DHT22;12318;51.262;7.066;2022-12-18T01:56:21;-1.90;99.90
24162;DHT22;12318;51.262;7.066;2022-12-18T01:59:06;-1.90;99.90
24162;DHT22;12318;51.262;7.066;2022-12-18T02:01:33;-1.90;99.90
24162;DHT22;12318;51.262;7.066;2022-12-18T02:04:36;-1.90;99.90
24162;DHT22;12318;51.262;7.066;2022-12-18T02:10:13;-2.00;99.90
24162;DHT22;12318;51.262;7.066;2022-12-18T02:15:54;-1.80;99.90
24162;DHT22;12318;51.262;7.066;2022-12-18T02:18:43;-1.80;99.90
24162;DHT22;12318;51.262;7.066;2022-12-18T02:26:58;-1.70;99.90
24162;DHT22;12318;51.262;7.066;2022-12-18T02:29:45;-1.70;99.90
24162;DHT22;12318;51.262;7.066;2022-12-18T02:32:15;-1.60;99.90
24162;DHT22;12318;51.262;7.066;2022-12-18T02:34:43;-1.70;99.90
24162;DHT22;12318;51.262;7.066;2022-12-18T02:37:18;-1.60;99.90
24162;DHT22;12318;51.262;7.066;2022-12-18T02:39:47;-1.60;99.90
24162;DHT22;12318;51.262;7.066;2022-12-18T02:42:14;-1.50;99.90
24162;DHT22;12318;51.262;7.066;2022-12-18T02:44:47;-1.50;99.90
24162;DHT22;12318;51.262;7.066;2022-12-18T02:47:15;-1.40;99.90
24162;DHT22;12318;51.262;7.066;2022-12-18T02:52:31;-1.40;99.90
24162;DHT22;12318;51.262;7.066;2022-12-18T02:55:29;-1.40;99.90
24162;DHT22;12318;51.262;7.066;2022-12-18T02:58:27;-1.30;99.90
24162;DHT22;12318;51.262;7.066;2022-12-18T03:03:49;-1.30;99.90
24162;DHT22;12318;51.262;7.066;2022-12-18T03:06:25;-1.20;99.90
24162;DHT22;12318;51.262;7.066;2022-12-18T03:09:02;-1.20;99.90
24162;DHT22;12318;51.262;7.066;2022-12-18T03:11:34;-1.20;99.90
24162;DHT22;12318;51.262;7.066;2022-12-18T03:14:21;-1.40;99.90
24162;DHT22;12318;51.262;7.066;2022-12-18T03:16:52;-1.30;99.90
24162;DHT22;12318;51.262;7.066;2022-12-18T03:19:22;-1.40;99.90
24162;DHT22;12318;51.262;7.066;2022-12-18T03:21:54;-1.30;99.90
24162;DHT22;12318;51.262;7.066;2022-12-18T03:24:22;-1.20;99.90
24162;DHT22;12318;51.262;7.066;2022-12-18T03:26:54;-1.30;99.90
24162;DHT22;12318;51.262;7.066;2022-12-18T03:29:35;-1.30;99.90
24162;DHT22;12318;51.262;7.066;2022-12-18T03:32:08;-1.30;99.90
24162;DHT22;12318;51.262;7.066;2022-12-18T03:34:38;-1.30;99.90
24162;DHT22;12318;51.262;7.066;2022-12-18T03:37:15;-1.10;99.90
24162;DHT22;12318;51.262;7.066;2022-12-18T03:39:41;-1.20;99.90
24162;DHT22;12318;51.262;7.066;2022-12-18T03:42:15;-1.10;99.90
24162;DHT22;12318;51.262;7.066;2022-12-18T03:44:53;-1.20;99.90
24162;DHT22;12318;51.262;7.066;2022-12-18T03:50:15;-1.10;99.90
24162;DHT22;12318;51.262;7.066;2022-12-18T03:52:49;-1.20;99.90
24162;DHT22;12318;51.262;7.066;2022-12-18T03:55:18;-1.10;99.90
24162;DHT22;12318;51.262;7.066;2022-12-18T03:57:46;-1.20;99.90
24162;DHT22;12318;51.262;7.066;2022-12-18T04:00:14;-1.20;99.90
24162;DHT22;12318;51.262;7.066;2022-12-18T04:02:53;-1.10;99.90
24162;DHT22;12318;51.262;7.066;2022-12-18T04:05:20;-1.00;99.90
24162;DHT22;12318;51.262;7.066;2022-12-18T04:07:48;-1.10;99.90
24162;DHT22;12318;51.262;7.066;2022-12-18T04:10:16;-1.20;99.90
24162;DHT22;12318;51.262;7.066;2022-12-18T04:12:42;-1.20;99.90
24162;DHT22;12318;51.262;7.066;2022-12-18T04:15:09;-1.20;99.90
24162;DHT22;12318;51.262;7.066;2022-12-18T04:17:35;-1.10;99.90
24162;DHT22;12318;51.262;7.066;2022-12-18T04:20:01;-1.20;99.90
24162;DHT22;12318;51.262;7.066;2022-12-18T04:22:27;-1.20;99.90
24162;DHT22;12318;51.262;7.066;2022-12-18T04:24:52;-1.20;99.90
24162;DHT22;12318;51.262;7.066;2022-12-18T04:27:18;-1.10;99.90
24162;DHT22;12318;51.262;7.066;2022-12-18T04:29:44;-1.00;99.90
24162;DHT22;12318;51.262;7.066;2022-12-18T04:32:10;-1.00;99.90
24162;DHT22;12318;51.262;7.066;2022-12-18T04:34:36;-1.10;99.90
24162;DHT22;12318;51.262;7.066;2022-12-18T04:37:04;-0.90;99.90
24162;DHT22;12318;51.262;7.066;2022-12-18T04:39:29;-0.90;99.90
24162;DHT22;12318;51.262;7.066;2022-12-18T04:41:55;-0.80;99.90
24162;DHT22;12318;51.262;7.066;2022-12-18T04:44:21;-0.50;99.90
24162;DHT22;12318;51.262;7.066;2022-12-18T04:46:52;-0.60;99.90
24162;DHT22;12318;51.262;7.066;2022-12-18T04:49:18;-0.60;99.90
24162;DHT22;12318;51.262;7.066;2022-12-18T04:51:43;-0.50;99.90
24162;DHT22;12318;51.262;7.066;2022-12-18T04:54:09;-0.60;99.90
24162;DHT22;12318;51.262;7.066;2022-12-18T04:56:48;-0.60;99.90
24162;DHT22;12318;51.262;7.066;2022-12-18T04:59:14;-0.60;99.90
24162;DHT22;12318;51.262;7.066;2022-12-18T05:01:40;-0.60;99.90
24162;DHT22;12318;51.262;7.066;2022-12-18T05:04:06;-0.60;99.90
24162;DHT22;12318;51.262;7.066;2022-12-18T05:06:43;-0.60;99.90
24162;DHT22;12318;51.262;7.066;2022-12-18T05:09:08;-0.70;99.90
24162;DHT22;12318;51.262;7.066;2022-12-18T05:11:34;-0.80;99.90
24162;DHT22;12318;51.262;7.066;2022-12-18T05:14:00;-0.90;99.90
24162;DHT22;12318;51.262;7.066;2022-12-18T05:16:36;-0.80;99.90
24162;DHT22;12318;51.262;7.066;2022-12-18T05:19:02;-0.80;99.90
24162;DHT22;12318;51.262;7.066;2022-12-18T05:21:28;-0.80;99.90
24162;DHT22;12318;51.262;7.066;2022-12-18T05:23:53;-0.80;99.90
24162;DHT22;12318;51.262;7.066;2022-12-18T05:26:19;-0.90;99.90
24162;DHT22;12318;51.262;7.066;2022-12-18T05:28:45;-0.90;99.90
24162;DHT22;12318;51.262;7.066;2022-12-18T05:31:11;-1.10;99.90
24162;DHT22;12318;51.262;7.066;2022-12-18T05:33:37;-1.00;99.90
24162;DHT22;12318;51.262;7.066;2022-12-18T05:36:05;-1.00;99.90
24162;DHT22;12318;51.262;7.066;2022-12-18T05:38:42;-1.00;99.90
24162;DHT22;12318;51.262;7.066;2022-12-18T05:41:08;-0.90;99.90
24162;DHT22;12318;51.262;7.066;2022-12-18T05:43:36;-0.80;99.90
24162;DHT22;12318;51.262;7.066;2022-12-18T05:46:07;-0.90;99.90
24162;DHT22;12318;51.262;7.066;2022-12-18T05:48:34;-1.00;99.90
24162;DHT22;12318;51.262;7.066;2022-12-18T05:51:05;-1.00;99.90
24162;DHT22;12318;51.262;7.066;2022-12-18T05:53:32;-1.00;99.90
24162;DHT22;12318;51.262;7.066;2022-12-18T05:56:00;-1.00;99.90
24162;DHT22;12318;51.262;7.066;2022-12-18T05:58:33;-1.00;99.90
24162;DHT22;12318;51.262;7.066;2022-12-18T06:01:07;-0.90;99.90
24162;DHT22;12318;51.262;7.066;2022-12-18T06:03:33;-0.90;99.90
24162;DHT22;12318;51.262;7.066;2022-12-18T06:05:59;-0.90;99.90
24162;DHT22;12318;51.262;7.066;2022-12-18T06:08:35;-0.90;99.90
24162;DHT22;12318;51.262;7.066;2022-12-18T06:11:00;-0.90;99.90
24162;DHT22;12318;51.262;7.066;2022-12-18T06:13:26;-0.90;99.90
24162;DHT22;12318;51.262;7.066;2022-12-18T06:15:52;-1.00;99.90
24162;DHT22;12318;51.262;7.066;2022-12-18T06:18:21;-0.90;99.90
24162;DHT22;12318;51.262;7.066;2022-12-18T06:20:55;-1.00;99.90
24162;DHT22;12318;51.262;7.066;2022-12-18T06:23:21;-0.90;99.90
24162;DHT22;12318;51.262;7.066;2022-12-18T06:25:47;-1.00;99.90
24162;DHT22;12318;51.262;7.066;2022-12-18T06:28:13;-1.00;99.90
24162;DHT22;12318;51.262;7.066;2022-12-18T06:30:38;-1.00;99.90
24162;DHT22;12318;51.262;7.066;2022-12-18T06:33:04;-1.00;99.90
24162;DHT22;12318;51.262;7.066;2022-12-18T06:35:31;-0.90;99.90
24162;DHT22;12318;51.262;7.066;2022-12-18T06:38:14;-0.90;99.90
24162;DHT22;12318;51.262;7.066;2022-12-18T06:40:39;-1.00;99.90
24162;DHT22;12318;51.262;7.066;2022-12-18T06:43:05;-0.90;99.90
24162;DHT22;12318;51.262;7.066;2022-12-18T06:45:31;-1.00;99.90
24162;DHT22;12318;51.262;7.066;2022-12-18T06:47:57;-0.90;99.90
24162;DHT22;12318;51.262;7.066;2022-12-18T06:50:22;-0.90;99.90
24162;DHT22;12318;51.262;7.066;2022-12-18T06:52:48;-0.90;99.90
24162;DHT22;12318;51.262;7.066;2022-12-18T06:55:14;-0.90;99.90
24162;DHT22;12318;51.262;7.066;2022-12-18T06:58:11;-0.80;99.90
24162;DHT22;12318;51.262;7.066;2022-12-18T07:00:37;-0.90;99.90
24162;DHT22;12318;51.262;7.066;2022-12-18T07:03:02;-0.90;99.90
24162;DHT22;12318;51.262;7.066;2022-12-18T07:05:28;-1.00;99.90
24162;DHT22;12318;51.262;7.066;2022-12-18T07:07:54;-0.80;99.90
24162;DHT22;12318;51.262;7.066;2022-12-18T07:10:20;-0.80;99.90
24162;DHT22;12318;51.262;7.066;2022-12-18T07:12:45;-0.80;99.90
24162;DHT22;12318;51.262;7.066;2022-12-18T07:15:11;-0.70;99.90
24162;DHT22;12318;51.262;7.066;2022-12-18T07:17:38;-0.50;99.90
24162;DHT22;12318;51.262;7.066;2022-12-18T07:20:04;-0.60;99.90
24162;DHT22;12318;51.262;7.066;2022-12-18T07:22:30;-0.70;99.90
24162;DHT22;12318;51.262;7.066;2022-12-18T07:24:56;-0.60;99.90
24162;DHT22;12318;51.262;7.066;2022-12-18T07:27:52;-0.50;99.90
24162;DHT22;12318;51.262;7.066;2022-12-18T07:30:18;-0.60;99.90
24162;DHT22;12318;51.262;7.066;2022-12-18T07:32:44;-0.60;99.90
24162;DHT22;12318;51.262;7.066;2022-12-18T07:35:09;-0.70;99.90
24162;DHT22;12318;51.262;7.066;2022-12-18T07:37:35;-0.80;99.90
24162;DHT22;12318;51.262;7.066;2022-12-18T07:40:01;-0.80;99.90
24162;DHT22;12318;51.262;7.066;2022-12-18T07:42:26;-0.70;99.90
24162;DHT22;12318;51.262;7.066;2022-12-18T07:44:59;-0.80;99.90
24162;DHT22;12318;51.262;7.066;2022-12-18T07:47:43;-0.80;99.90
24162;DHT22;12318;51.262;7.066;2022-12-18T07:50:09;-0.80;99.90
24162;DHT22;12318;51.262;7.066;2022-12-18T07:52:35;-0.80;99.90
24162;DHT22;12318;51.262;7.066;2022-12-18T07:55:02;-0.70;99.90
24162;DHT22;12318;51.262;7.066;2022-12-18T07:57:41;-0.70;99.90
24162;DHT22;12318;51.262;7.066;2022-12-18T08:00:08;-0.80;99.90
24162;DHT22;12318;51.262;7.066;2022-12-18T08:02:33;-0.70;99.90
24162;DHT22;12318;51.262;7.066;2022-12-18T08:04:59;-0.70;99.90
24162;DHT22;12318;51.262;7.066;2022-12-18T08:07:25;-0.70;99.90
24162;DHT22;12318;51.262;7.066;2022-12-18T08:09:51;-0.70;99.90
24162;DHT22;12318;51.262;7.066;2022-12-18T08:12:17;-0.70;99.90
24162;DHT22;12318;51.262;7.066;2022-12-18T08:14:42;-0.70;99.90
24162;DHT22;12318;51.262;7.066;2022-12-18T08:17:14;-0.60;99.90
24162;DHT22;12318;51.262;7.066;2022-12-18T08:19:40;-0.60;99.90
24162;DHT22;12318;51.262;7.066;2022-12-18T08:22:05;-0.50;99.90
24162;DHT22;12318;51.262;7.066;2022-12-18T08:24:31;-0.50;99.90
24162;DHT22;12318;51.262;7.066;2022-12-18T08:26:57;-0.50;99.90
24162;DHT22;12318;51.262;7.066;2022-12-18T08:29:23;-0.40;99.90
24162;DHT22;12318;51.262;7.066;2022-12-18T08:31:48;-0.40;99.90
24162;DHT22;12318;51.262;7.066;2022-12-18T08:34:14;-0.40;99.90
24162;DHT22;12318;51.262;7.066;2022-12-18T08:36:55;-0.30;99.90
24162;DHT22;12318;51.262;7.066;2022-12-18T08:39:20;-0.30;99.90
24162;DHT22;12318;51.262;7.066;2022-12-18T08:41:46;-0.30;99.90
24162;DHT22;12318;51.262;7.066;2022-12-18T08:44:32;-0.30;99.90
24162;DHT22;12318;51.262;7.066;2022-12-18T08:47:14;-0.20;99.90
24162;DHT22;12318;51.262;7.066;2022-12-18T08:49:40;0.00;99.90
24162;DHT22;12318;51.262;7.066;2022-12-18T08:52:06;0.00;99.90
24162;DHT22;12318;51.262;7.066;2022-12-18T08:54:31;0.00;99.90
24162;DHT22;12318;51.262;7.066;2022-12-18T08:56:58;0.00;99.90
24162;DHT22;12318;51.262;7.066;2022-12-18T08:59:23;0.10;99.90
24162;DHT22;12318;51.262;7.066;2022-12-18T09:01:53;0.20;99.90
24162;DHT22;12318;51.262;7.066;2022-12-18T09:04:19;0.30;99.90
24162;DHT22;12318;51.262;7.066;2022-12-18T09:07:16;0.30;99.90
24162;DHT22;12318;51.262;7.066;2022-12-18T09:09:42;0.50;99.90
24162;DHT22;12318;51.262;7.066;2022-12-18T09:12:08;0.50;99.90
24162;DHT22;12318;51.262;7.066;2022-12-18T09:14:34;0.60;99.90
24162;DHT22;12318;51.262;7.066;2022-12-18T09:17:01;0.60;99.80
24162;DHT22;12318;51.262;7.066;2022-12-18T09:19:27;0.60;99.90
24162;DHT22;12318;51.262;7.066;2022-12-18T09:21:52;0.60;99.50
24162;DHT22;12318;51.262;7.066;2022-12-18T09:24:18;0.70;99.10
24162;DHT22;12318;51.262;7.066;2022-12-18T09:26:47;0.70;99.10
24162;DHT22;12318;51.262;7.066;2022-12-18T09:29:14;0.70;99.00
24162;DHT22;12318;51.262;7.066;2022-12-18T09:31:40;0.70;99.00
24162;DHT22;12318;51.262;7.066;2022-12-18T09:34:06;0.70;98.90
24162;DHT22;12318;51.262;7.066;2022-12-18T09:36:34;0.80;98.60
24162;DHT22;12318;51.262;7.066;2022-12-18T09:38:59;0.90;98.30
24162;DHT22;12318;51.262;7.066;2022-12-18T09:41:46;0.90;98.20
24162;DHT22;12318;51.262;7.066;2022-12-18T09:47:33;1.10;97.50
24162;DHT22;12318;51.262;7.066;2022-12-18T09:50:13;1.10;97.50
24162;DHT22;12318;51.262;7.066;2022-12-18T09:52:45;1.10;97.60
24162;DHT22;12318;51.262;7.066;2022-12-18T09:55:33;1.20;97.50
24162;DHT22;12318;51.262;7.066;2022-12-18T09:58:31;1.20;97.80
24162;DHT22;12318;51.262;7.066;2022-12-18T10:01:00;1.20;98.00
24162;DHT22;12318;51.262;7.066;2022-12-18T10:03:26;1.20;97.80
24162;DHT22;12318;51.262;7.066;2022-12-18T10:06:18;1.20;98.10
24162;DHT22;12318;51.262;7.066;2022-12-18T10:09:04;1.20;97.80
24162;DHT22;12318;51.262;7.066;2022-12-18T10:17:14;1.20;97.70
24162;DHT22;12318;51.262;7.066;2022-12-18T10:19:59;1.30;97.90
24162;DHT22;12318;51.262;7.066;2022-12-18T10:27:45;1.40;97.40
24162;DHT22;12318;51.262;7.066;2022-12-18T10:30:16;1.40;97.20
24162;DHT22;12318;51.262;7.066;2022-12-18T10:32:42;1.40;97.30
24162;DHT22;12318;51.262;7.066;2022-12-18T10:35:19;1.40;97.20
24162;DHT22;12318;51.262;7.066;2022-12-18T10:40:50;1.60;97.60
24162;DHT22;12318;51.262;7.066;2022-12-18T10:43:29;1.50;96.80
24162;DHT22;12318;51.262;7.066;2022-12-18T10:51:32;1.70;97.10
24162;DHT22;12318;51.262;7.066;2022-12-18T10:54:22;1.80;97.00
24162;DHT22;12318;51.262;7.066;2022-12-18T10:56:48;1.70;97.10
24162;DHT22;12318;51.262;7.066;2022-12-18T10:59:17;1.70;96.90
24162;DHT22;12318;51.262;7.066;2022-12-18T11:01:58;1.70;96.70
24162;DHT22;12318;51.262;7.066;2022-12-18T11:04:29;1.70;96.30
24162;DHT22;12318;51.262;7.066;2022-12-18T11:09:39;1.80;96.50
24162;DHT22;12318;51.262;7.066;2022-12-18T11:12:18;1.80;96.20
24162;DHT22;12318;51.262;7.066;2022-12-18T11:14:54;1.80;96.50
24162;DHT22;12318;51.262;7.066;2022-12-18T11:17:35;1.80;96.40
24162;DHT22;12318;51.262;7.066;2022-12-18T11:22:59;1.80;96.30
24162;DHT22;12318;51.262;7.066;2022-12-18T11:25:29;1.80;96.60
24162;DHT22;12318;51.262;7.066;2022-12-18T11:36:22;1.90;96.20
24162;DHT22;12318;51.262;7.066;2022-12-18T11:38:50;2.00;96.20
24162;DHT22;12318;51.262;7.066;2022-12-18T11:41:57;1.90;96.00
24162;DHT22;12318;51.262;7.066;2022-12-18T11:44:59;1.90;96.30
24162;DHT22;12318;51.262;7.066;2022-12-18T11:50:19;2.00;96.40
24162;DHT22;12318;51.262;7.066;2022-12-18T11:52:48;1.90;96.20
24162;DHT22;12318;51.262;7.066;2022-12-18T12:18:17;2.00;95.80
24162;DHT22;12318;51.262;7.066;2022-12-18T12:26:06;1.90;96.20
24162;DHT22;12318;51.262;7.066;2022-12-18T12:31:33;1.80;96.70
24162;DHT22;12318;51.262;7.066;2022-12-18T12:34:22;1.80;96.50
24162;DHT22;12318;51.262;7.066;2022-12-18T12:39:46;1.70;97.00
24162;DHT22;12318;51.262;7.066;2022-12-18T12:42:38;1.80;97.50
24162;DHT22;12318;51.262;7.066;2022-12-18T12:45:38;1.80;97.60
24162;DHT22;12318;51.262;7.066;2022-12-18T12:48:10;1.70;97.70
24162;DHT22;12318;51.262;7.066;2022-12-18T12:50:40;1.70;97.50
24162;DHT22;12318;51.262;7.066;2022-12-18T12:53:08;1.70;98.00
24162;DHT22;12318;51.262;7.066;2022-12-18T12:55:38;1.70;98.00
24162;DHT22;12318;51.262;7.066;2022-12-18T13:08:58;1.60;98.70
24162;DHT22;12318;51.262;7.066;2022-12-18T13:11:44;1.60;98.80
24162;DHT22;12318;51.262;7.066;2022-12-18T13:14:38;1.50;99.00
24162;DHT22;12318;51.262;7.066;2022-12-18T13:17:27;1.80;99.90
24162;DHT22;12318;51.262;7.066;2022-12-18T13:20:10;1.80;99.40
24162;DHT22;12318;51.262;7.066;2022-12-18T13:22:46;1.70;99.10
24162;DHT22;12318;51.262;7.066;2022-12-18T13:28:06;1.60;99.40
24162;DHT22;12318;51.262;7.066;2022-12-18T13:38:32;1.40;99.90
24162;DHT22;12318;51.262;7.066;2022-12-18T13:41:25;1.40;99.90
24162;DHT22;12318;51.262;7.066;2022-12-18T13:43:53;1.40;99.90
24162;DHT22;12318;51.262;7.066;2022-12-18T13:46:42;1.40;99.90
24162;DHT22;12318;51.262;7.066;2022-12-18T13:55:05;1.30;99.90
24162;DHT22;12318;51.262;7.066;2022-12-18T13:57:37;1.30;99.90
24162;DHT22;12318;51.262;7.066;2022-12-18T14:00:25;1.20;99.90
24162;DHT22;12318;51.262;7.066;2022-12-18T14:02:51;1.20;99.90
24162;DHT22;12318;51.262;7.066;2022-12-18T14:05:31;1.20;99.90
24162;DHT22;12318;51.262;7.066;2022-12-18T14:08:05;1.10;99.90
24162;DHT22;12318;51.262;7.066;2022-12-18T14:10:32;1.10;99.90
24162;DHT22;12318;51.262;7.066;2022-12-18T14:13:05;1.10;99.90
24162;DHT22;12318;51.262;7.066;2022-12-18T14:15:34;1.10;99.90
24162;DHT22;12318;51.262;7.066;2022-12-18T14:18:12;1.10;99.90
24162;DHT22;12318;51.262;7.066;2022-12-18T14:20:43;1.10;99.90
24162;DHT22;12318;51.262;7.066;2022-12-18T14:23:35;1.10;99.90
24162;DHT22;12318;51.262;7.066;2022-12-18T14:26:03;1.10;99.90
24162;DHT22;12318;51.262;7.066;2022-12-18T14:28:44;1.10;99.90
24162;DHT22;12318;51.262;7.066;2022-12-18T14:31:20;1.10;99.70
24162;DHT22;12318;51.262;7.066;2022-12-18T14:33:46;1.10;99.60
24162;DHT22;12318;51.262;7.066;2022-12-18T14:36:17;1.10;99.70
24162;DHT22;12318;51.262;7.066;2022-12-18T14:38:43;1.10;99.60
24162;DHT22;12318;51.262;7.066;2022-12-18T14:41:15;1.10;99.80
24162;DHT22;12318;51.262;7.066;2022-12-18T14:43:43;1.00;99.90
24162;DHT22;12318;51.262;7.066;2022-12-18T14:46:29;1.00;99.80
24162;DHT22;12318;51.262;7.066;2022-12-18T14:48:58;1.00;99.90
24162;DHT22;12318;51.262;7.066;2022-12-18T14:51:27;0.90;99.90
24162;DHT22;12318;51.262;7.066;2022-12-18T14:54:05;0.90;99.90
24162;DHT22;12318;51.262;7.066;2022-12-18T14:56:36;0.90;99.90
24162;DHT22;12318;51.262;7.066;2022-12-18T14:59:06;0.70;99.90
24162;DHT22;12318;51.262;7.066;2022-12-18T15:04:39;0.70;99.90
24162;DHT22;12318;51.262;7.066;2022-12-18T15:07:25;0.70;99.90
24162;DHT22;12318;51.262;7.066;2022-12-18T15:12:44;0.60;99.90
24162;DHT22;12318;51.262;7.066;2022-12-18T15:18:03;0.60;99.90
24162;DHT22;12318;51.262;7.066;2022-12-18T15:21:07;0.60;99.90
24162;DHT22;12318;51.262;7.066;2022-12-18T15:23:48;0.50;99.90
24162;DHT22;12318;51.262;7.066;2022-12-18T15:26:18;0.50;99.90
24162;DHT22;12318;51.262;7.066;2022-12-18T15:28:48;0.50;99.90
24162;DHT22;12318;51.262;7.066;2022-12-18T15:34:05;0.40;99.90
24162;DHT22;12318;51.262;7.066;2022-12-18T15:36:35;0.40;99.90
24162;DHT22;12318;51.262;7.066;2022-12-18T15:39:02;0.40;99.90
24162;DHT22;12318;51.262;7.066;2022-12-18T15:41:32;0.40;99.90
24162;DHT22;12318;51.262;7.066;2022-12-18T15:43:59;0.40;99.90
24162;DHT22;12318;51.262;7.066;2022-12-18T15:46:25;0.40;99.90
24162;DHT22;12318;51.262;7.066;2022-12-18T15:48:53;0.40;99.90
24162;DHT22;12318;51.262;7.066;2022-12-18T15:51:30;0.40;99.90
24162;DHT22;12318;51.262;7.066;2022-12-18T15:54:00;0.40;99.90
24162;DHT22;12318;51.262;7.066;2022-12-18T15:56:26;0.40;99.90
24162;DHT22;12318;51.262;7.066;2022-12-18T15:59:18;0.30;99.90
24162;DHT22;12318;51.262;7.066;2022-12-18T16:01:47;0.40;99.90
24162;DHT22;12318;51.262;7.066;2022-12-18T16:04:19;0.30;99.90
24162;DHT22;12318;51.262;7.066;2022-12-18T16:06:46;0.30;99.90
24162;DHT22;12318;51.262;7.066;2022-12-18T16:09:12;0.30;99.90
24162;DHT22;12318;51.262;7.066;2022-12-18T16:11:44;0.30;99.90
24162;DHT22;12318;51.262;7.066;2022-12-18T16:14:18;0.20;99.90
24162;DHT22;12318;51.262;7.066;2022-12-18T16:16:49;0.20;99.90
24162;DHT22;12318;51.262;7.066;2022-12-18T16:19:15;0.10;99.90
24162;DHT22;12318;51.262;7.066;2022-12-18T16:21:45;0.20;99.90
24162;DHT22;12318;51.262;7.066;2022-12-18T16:24:15;0.10;99.90
24162;DHT22;12318;51.262;7.066;2022-12-18T16:26:42;0.00;99.90
24162;DHT22;12318;51.262;7.066;2022-12-18T16:29:08;0.00;99.90
24162;DHT22;12318;51.262;7.066;2022-12-18T16:31:34;0.00;99.90
24162;DHT22;12318;51.262;7.066;2022-12-18T16:34:33;0.00;99.90
24162;DHT22;12318;51.262;7.066;2022-12-18T16:37:05;0.00;99.90
24162;DHT22;12318;51.262;7.066;2022-12-18T16:39:34;0.00;99.90
24162;DHT22;12318;51.262;7.066;2022-12-18T16:42:02;0.00;99.90
24162;DHT22;12318;51.262;7.066;2022-12-18T16:44:28;0.00;99.90
24162;DHT22;12318;51.262;7.066;2022-12-18T16:46:54;0.00;99.90
24162;DHT22;12318;51.262;7.066;2022-12-18T16:49:20;0.00;99.90
24162;DHT22;12318;51.262;7.066;2022-12-18T16:51:47;0.00;99.90
24162;DHT22;12318;51.262;7.066;2022-12-18T16:54:12;0.00;99.90
24162;DHT22;12318;51.262;7.066;2022-12-18T16:56:39;0.00;99.90
24162;DHT22;12318;51.262;7.066;2022-12-18T16:59:07;0.00;99.90
24162;DHT22;12318;51.262;7.066;2022-12-18T17:01:38;-0.10;99.90
24162;DHT22;12318;51.262;7.066;2022-12-18T17:04:06;-0.10;99.90
24162;DHT22;12318;51.262;7.066;2022-12-18T17:06:37;-0.10;99.90
24162;DHT22;12318;51.262;7.066;2022-12-18T17:09:13;-0.10;99.90
24162;DHT22;12318;51.262;7.066;2022-12-18T17:11:40;-0.10;99.90
24162;DHT22;12318;51.262;7.066;2022-12-18T17:14:10;-0.10;99.90
24162;DHT22;12318;51.262;7.066;2022-12-18T17:16:41;-0.10;99.90
24162;DHT22;12318;51.262;7.066;2022-12-18T17:19:07;-0.20;99.90
24162;DHT22;12318;51.262;7.066;2022-12-18T17:21:33;-0.20;99.90
24162;DHT22;12318;51.262;7.066;2022-12-18T17:23:59;-0.20;99.90
24162;DHT22;12318;51.262;7.066;2022-12-18T17:26:27;-0.20;99.90
24162;DHT22;12318;51.262;7.066;2022-12-18T17:28:56;-0.20;99.90
24162;DHT22;12318;51.262;7.066;2022-12-18T17:31:25;-0.20;99.90
24162;DHT22;12318;51.262;7.066;2022-12-18T17:33:52;-0.10;99.90
24162;DHT22;12318;51.262;7.066;2022-12-18T17:36:18;-0.10;99.90
24162;DHT22;12318;51.262;7.066;2022-12-18T17:38:54;-0.20;99.90
24162;DHT22;12318;51.262;7.066;2022-12-18T17:41:23;-0.10;99.90
24162;DHT22;12318;51.262;7.066;2022-12-18T17:43:54;-0.10;99.90
24162;DHT22;12318;51.262;7.066;2022-12-18T17:46:21;0.00;99.90
24162;DHT22;12318;51.262;7.066;2022-12-18T17:51:51;-0.20;99.90
24162;DHT22;12318;51.262;7.066;2022-12-18T17:54:20;-0.20;99.90
24162;DHT22;12318;51.262;7.066;2022-12-18T17:56:51;-0.20;99.90
24162;DHT22;12318;51.262;7.066;2022-12-18T17:59:21;-0.30;99.90
24162;DHT22;12318;51.262;7.066;2022-12-18T18:01:49;-0.30;99.90
24162;DHT22;12318;51.262;7.066;2022-12-18T18:04:20;-0.30;99.90
24162;DHT22;12318;51.262;7.066;2022-12-18T18:06:49;-0.30;99.90
24162;DHT22;12318;51.262;7.066;2022-12-18T18:09:15;-0.30;99.90
24162;DHT22;12318;51.262;7.066;2022-12-18T18:11:47;-0.30;99.90
24162;DHT22;12318;51.262;7.066;2022-12-18T18:14:35;-0.30;99.90
24162;DHT22;12318;51.262;7.066;2022-12-18T18:17:06;-0.20;99.90
24162;DHT22;12318;51.262;7.066;2022-12-18T18:19:34;-0.30;99.90